createdAt,value
2018-09-25T00:01:09.944Z,1.90
2018-09-25T00:03:43.201Z,3.20
2018-09-25T00:06:16.185Z,2.70
2018-09-25T00:08:49.372Z,2.10
2018-09-25T00:11:22.345Z,2.27
2018-09-25T00:13:55.548Z,2.63
2018-09-25T00:16:28.609Z,1.83
2018-09-25T00:19:01.686Z,2.67
2018-09-25T00:21:34.541Z,1.60
2018-09-25T00:24:07.729Z,1.30
2018-09-25T00:26:40.695Z,2.20
2018-09-25T00:29:14.009Z,2.50
2018-09-25T00:31:46.935Z,1.40
2018-09-25T00:34:20.349Z,1.40
2018-09-25T00:36:53.370Z,1.20
2018-09-25T00:39:26.368Z,1.50
2018-09-25T00:41:59.228Z,0.90
2018-09-25T00:44:32.421Z,1.40
2018-09-25T00:47:05.398Z,1.43
2018-09-25T00:49:38.651Z,1.17
2018-09-25T00:52:11.674Z,1.10
2018-09-25T00:54:44.910Z,1.37
2018-09-25T00:57:17.874Z,1.23
2018-09-25T00:59:50.935Z,1.30
2018-09-25T01:02:23.897Z,1.33
2018-09-25T01:04:57.036Z,1.30
2018-09-25T01:07:29.956Z,1.27
2018-09-25T01:10:03.073Z,1.40
2018-09-25T01:12:36.007Z,1.20
2018-09-25T01:15:09.312Z,1.50
2018-09-25T01:17:42.397Z,1.10
2018-09-25T01:20:15.398Z,2.03
2018-09-25T01:22:48.207Z,1.20
2018-09-25T01:25:21.376Z,1.40
2018-09-25T01:27:54.214Z,1.60
2018-09-25T01:30:27.457Z,1.40
2018-09-25T01:33:00.290Z,1.30
2018-09-25T01:35:33.450Z,1.23
2018-09-25T01:38:06.350Z,1.60
2018-09-25T01:40:39.200Z,1.30
2018-09-25T01:43:12.047Z,1.07
2018-09-25T01:45:45.290Z,1.43
2018-09-25T01:48:18.442Z,1.20
2018-09-25T01:50:51.617Z,1.27
2018-09-25T01:53:24.414Z,1.37
2018-09-25T01:55:57.288Z,1.30
2018-09-25T01:58:30.131Z,1.57
2018-09-25T02:01:03.324Z,1.13
2018-09-25T02:03:36.245Z,1.60
2018-09-25T02:06:09.377Z,1.50
2018-09-25T02:08:42.256Z,1.77
2018-09-25T02:11:15.539Z,1.57
2018-09-25T02:13:48.428Z,1.10
2018-09-25T02:16:21.704Z,1.20
2018-09-25T02:18:54.529Z,1.13
2018-09-25T02:21:27.406Z,1.50
2018-09-25T02:24:00.279Z,1.17
2018-09-25T02:26:33.467Z,1.10
2018-09-25T02:29:06.342Z,2.00
2018-09-25T02:31:39.616Z,1.50
2018-09-25T02:34:12.567Z,1.53
2018-09-25T02:36:45.500Z,1.70
2018-09-25T02:39:18.477Z,1.30
2018-09-25T02:41:51.486Z,1.37
2018-09-25T02:44:24.393Z,1.10
2018-09-25T02:46:57.466Z,1.20
2018-09-25T02:49:30.462Z,1.20
2018-09-25T02:52:03.761Z,1.30
2018-09-25T02:54:36.802Z,1.30
2018-09-25T02:57:09.915Z,1.20
2018-09-25T02:59:42.780Z,1.00
2018-09-25T03:02:16.151Z,1.57
2018-09-25T03:04:49.142Z,2.03
2018-09-25T03:07:22.396Z,3.30
2018-09-25T03:09:55.303Z,3.07
2018-09-25T03:12:28.493Z,4.83
2018-09-25T03:15:01.344Z,5.17
2018-09-25T03:17:34.201Z,5.50
2018-09-25T03:20:07.147Z,5.40
2018-09-25T03:22:40.414Z,5.40
2018-09-25T03:25:13.320Z,5.10
2018-09-25T03:27:46.456Z,6.20
2018-09-25T03:30:19.410Z,5.80
2018-09-25T03:32:52.572Z,5.50
2018-09-25T03:35:25.373Z,4.83
2018-09-25T03:37:58.203Z,5.20
2018-09-25T03:40:31.061Z,5.47
2018-09-25T03:43:04.359Z,5.00
2018-09-25T03:45:37.314Z,4.60
2018-09-25T03:48:10.506Z,5.27
2018-09-25T03:50:43.349Z,4.03
2018-09-25T03:53:16.702Z,3.87
2018-09-25T03:55:49.593Z,4.40
2018-09-25T03:58:22.438Z,3.60
2018-09-25T04:00:55.344Z,3.90
2018-09-25T04:03:28.476Z,3.87
2018-09-25T04:06:01.466Z,3.00
2018-09-25T04:08:34.634Z,2.83
2018-09-25T04:11:07.689Z,3.20
2018-09-25T04:13:41.109Z,2.40
2018-09-25T04:16:14.059Z,2.20
2018-09-25T04:18:46.950Z,2.53
2018-09-25T04:21:19.787Z,2.10
2018-09-25T04:23:52.771Z,1.93
2018-09-25T04:26:25.694Z,1.87
2018-09-25T04:28:58.893Z,1.90
2018-09-25T04:31:31.784Z,2.43
2018-09-25T04:34:05.001Z,2.10
2018-09-25T04:36:37.863Z,2.00
2018-09-25T04:39:12.416Z,1.90
2018-09-25T04:41:45.287Z,1.20
2018-09-25T04:44:18.457Z,2.20
2018-09-25T04:46:51.301Z,1.37
2018-09-25T04:49:24.465Z,1.73
2018-09-25T04:51:57.393Z,1.60
2018-09-25T04:54:30.602Z,3.03
2018-09-25T04:57:03.516Z,2.67
2018-09-25T04:59:36.430Z,2.47
2018-09-25T05:02:09.349Z,3.17
2018-09-25T05:04:42.695Z,2.57
2018-09-25T05:07:15.728Z,2.50
2018-09-25T05:09:48.788Z,1.53
2018-09-25T05:12:21.679Z,2.00
2018-09-25T05:14:54.660Z,2.20
2018-09-25T05:17:27.495Z,1.83
2018-09-25T05:20:00.458Z,1.50
2018-09-25T05:22:33.412Z,1.90
2018-09-25T05:25:06.686Z,1.90
2018-09-25T05:27:39.542Z,1.63
2018-09-25T05:30:12.702Z,1.33
2018-09-25T05:32:45.690Z,1.47
2018-09-25T05:35:18.862Z,1.87
2018-09-25T05:37:51.709Z,1.83
2018-09-25T05:40:24.621Z,2.30
2018-09-25T05:42:57.473Z,1.93
2018-09-25T05:45:30.628Z,1.70
2018-09-25T05:48:03.611Z,2.93
2018-09-25T05:50:36.850Z,1.77
2018-09-25T05:53:09.635Z,2.10
2018-09-25T05:55:42.937Z,1.77
2018-09-25T05:58:17.007Z,3.00
2018-09-25T06:00:49.883Z,2.60
2018-09-25T06:03:22.717Z,2.20
2018-09-25T06:05:55.965Z,1.90
2018-09-25T06:08:28.707Z,2.43
2018-09-25T06:11:01.611Z,2.30
2018-09-25T06:13:34.570Z,2.73
2018-09-25T06:16:08.455Z,2.00
2018-09-25T06:18:42.524Z,1.97
2018-09-25T06:21:15.538Z,2.30
2018-09-25T06:23:48.578Z,2.17
2018-09-25T06:26:21.805Z,1.83
2018-09-25T06:28:54.696Z,1.87
2018-09-25T06:31:28.979Z,2.10
2018-09-25T06:34:01.932Z,1.70
2018-09-25T06:36:34.726Z,2.20
2018-09-25T06:39:07.565Z,1.50
2018-09-25T06:41:40.714Z,2.27
2018-09-25T06:44:13.756Z,1.97
2018-09-25T06:46:47.054Z,1.87
2018-09-25T06:49:19.865Z,2.23
2018-09-25T06:51:52.705Z,1.50
2018-09-25T06:54:25.573Z,2.13
2018-09-25T06:56:58.720Z,2.47
2018-09-25T06:59:31.701Z,1.80
2018-09-25T07:02:05.105Z,2.33
2018-09-25T07:04:38.184Z,1.97
2018-09-25T07:07:11.366Z,1.70
2018-09-25T07:09:44.216Z,2.00
2018-09-25T07:12:17.757Z,2.00
2018-09-25T07:14:50.729Z,2.73
2018-09-25T07:17:23.981Z,1.50
2018-09-25T07:19:57.081Z,1.90
2018-09-25T07:22:30.330Z,2.47
2018-09-25T07:25:03.263Z,2.37
2018-09-25T07:27:36.028Z,2.10
2018-09-25T07:32:59.753Z,2.30
2018-09-25T07:35:32.603Z,2.47
2018-09-25T07:38:05.845Z,2.10
2018-09-25T07:40:38.778Z,2.13
2018-09-25T07:43:11.744Z,2.23
2018-09-25T07:45:44.588Z,2.13
2018-09-25T07:48:17.834Z,1.93
2018-09-25T07:50:50.634Z,2.30
2018-09-25T07:53:23.816Z,2.97
2018-09-25T07:55:56.642Z,2.17
2018-09-25T07:58:29.569Z,2.07
2018-09-25T08:01:02.305Z,1.87
2018-09-25T08:03:35.289Z,2.27
2018-09-25T08:06:08.255Z,1.93
2018-09-25T08:08:41.533Z,2.17
2018-09-25T08:11:14.301Z,2.63
2018-09-25T08:13:47.107Z,1.63
2018-09-25T08:16:20.023Z,1.73
2018-09-25T08:18:53.194Z,2.50
2018-09-25T08:21:26.027Z,2.40
2018-09-25T08:23:58.926Z,2.10
2018-09-25T08:26:31.833Z,2.90
2018-09-25T08:29:05.146Z,2.07
2018-09-25T08:31:38.106Z,2.37
2018-09-25T08:34:10.833Z,2.10
2018-09-25T08:36:43.707Z,2.77
2018-09-25T08:39:17.647Z,1.90
2018-09-25T08:41:50.451Z,2.70
2018-09-25T08:44:23.619Z,2.30
2018-09-25T08:46:56.643Z,2.47
2018-09-25T08:49:29.405Z,1.60
2018-09-25T08:52:02.027Z,1.90
2018-09-25T08:54:35.335Z,1.80
2018-09-25T08:57:08.261Z,1.67
2018-09-25T08:59:41.243Z,1.67
2018-09-25T09:02:14.126Z,1.90
2018-09-25T09:04:46.984Z,2.03
2018-09-25T09:07:19.801Z,1.87
2018-09-25T09:09:53.073Z,1.93
2018-09-25T09:12:25.677Z,2.40
2018-09-25T09:14:58.923Z,2.00
2018-09-25T09:17:31.821Z,2.50
2018-09-25T09:20:04.652Z,2.17
2018-09-25T09:22:37.452Z,1.90
2018-09-25T09:25:10.663Z,2.60
2018-09-25T09:27:43.562Z,1.50
2018-09-25T09:30:16.675Z,2.10
2018-09-25T09:32:49.465Z,2.40
2018-09-25T09:35:22.346Z,2.53
2018-09-25T09:37:55.174Z,2.00
2018-09-25T09:40:28.310Z,2.50
2018-09-25T09:43:01.137Z,2.00
2018-09-25T09:45:34.415Z,2.53
2018-09-25T09:48:07.411Z,2.90
2018-09-25T09:50:40.345Z,2.10
2018-09-25T09:53:13.314Z,1.80
2018-09-25T09:55:46.576Z,1.63
2018-09-25T09:58:19.726Z,1.83
2018-09-25T10:00:52.531Z,1.67
2018-09-25T10:03:25.330Z,1.40
2018-09-25T10:05:58.269Z,1.43
2018-09-25T10:08:31.157Z,1.60
2018-09-25T10:11:04.258Z,1.60
2018-09-25T10:13:37.105Z,2.00
2018-09-25T10:16:10.434Z,1.67
2018-09-25T10:18:43.329Z,1.30
2018-09-25T10:21:16.182Z,1.30
2018-09-25T10:23:49.014Z,1.37
2018-09-25T10:26:22.277Z,2.43
2018-09-25T10:28:55.220Z,1.43
2018-09-25T10:31:27.994Z,1.77
2018-09-25T10:34:00.933Z,1.93
2018-09-25T10:36:34.149Z,1.27
2018-09-25T10:39:06.957Z,1.63
2018-09-25T10:41:39.943Z,1.70
2018-09-25T10:44:12.855Z,1.53
2018-09-25T10:46:46.204Z,1.13
2018-09-25T10:49:19.136Z,1.33
2018-09-25T10:51:52.311Z,1.50
2018-09-25T10:54:25.130Z,1.07
2018-09-25T10:56:58.052Z,1.33
2018-09-25T10:59:30.857Z,1.50
2018-09-25T11:02:04.005Z,1.03
2018-09-25T11:04:36.762Z,1.70
2018-09-25T11:07:09.697Z,1.40
2018-09-25T11:09:42.804Z,1.37
2018-09-25T11:12:15.605Z,2.20
2018-09-25T11:14:48.420Z,2.07
2018-09-25T11:17:22.331Z,1.53
2018-09-25T11:19:55.324Z,1.63
2018-09-25T11:22:28.740Z,1.93
2018-09-25T11:25:01.635Z,1.70
2018-09-25T11:27:35.007Z,1.80
2018-09-25T11:30:07.833Z,1.80
2018-09-25T11:32:40.633Z,1.43
2018-09-25T11:35:13.629Z,1.20
2018-09-25T11:37:46.876Z,1.57
2018-09-25T11:40:19.856Z,1.80
2018-09-25T11:42:53.009Z,1.30
2018-09-25T11:45:25.925Z,1.43
2018-09-25T11:47:59.051Z,1.40
2018-09-25T11:50:31.870Z,1.20
2018-09-25T11:53:05.268Z,1.97
2018-09-25T11:55:38.095Z,1.60
2018-09-25T11:58:11.307Z,1.50
2018-09-25T12:00:44.285Z,1.80
2018-09-25T12:03:17.493Z,1.60
2018-09-25T12:05:50.295Z,1.17
2018-09-25T12:08:23.166Z,1.73
2018-09-25T12:10:56.140Z,1.00
2018-09-25T12:13:29.126Z,1.10
2018-09-25T12:16:02.008Z,1.30
2018-09-25T12:18:35.169Z,1.17
2018-09-25T12:21:08.327Z,1.87
2018-09-25T12:23:41.198Z,2.13
2018-09-25T12:26:14.066Z,3.50
2018-09-25T12:28:48.301Z,1.63
2018-09-25T12:31:21.398Z,1.50
2018-09-25T12:33:54.783Z,1.77
2018-09-25T12:36:27.771Z,2.30
2018-09-25T12:39:01.068Z,1.90
2018-09-25T12:41:33.893Z,2.60
2018-09-25T12:44:06.763Z,2.17
2018-09-25T12:46:39.646Z,2.80
2018-09-25T12:49:12.692Z,2.20
2018-09-25T12:51:45.816Z,1.73
2018-09-25T12:54:19.025Z,2.07
2018-09-25T12:56:52.041Z,2.53
2018-09-25T12:59:25.272Z,1.40
2018-09-25T13:01:58.149Z,2.20
2018-09-25T13:04:31.369Z,1.00
2018-09-25T13:07:04.230Z,1.80
2018-09-25T13:09:37.245Z,1.20
2018-09-25T13:12:10.222Z,1.63
2018-09-25T13:14:43.508Z,1.80
2018-09-25T13:17:16.403Z,1.67
2018-09-25T13:19:49.621Z,1.43
2018-09-25T13:22:22.592Z,1.50
2018-09-25T13:24:55.766Z,1.50
2018-09-25T13:27:28.780Z,2.60
2018-09-25T13:30:01.800Z,1.47
2018-09-25T13:32:34.806Z,1.90
2018-09-25T13:35:07.761Z,1.53
2018-09-25T13:37:40.657Z,1.50
2018-09-25T13:40:13.596Z,1.80
2018-09-25T13:42:46.486Z,1.80
2018-09-25T13:45:19.719Z,2.13
2018-09-25T13:47:52.608Z,2.00
2018-09-25T13:50:25.471Z,2.47
2018-09-25T13:52:58.402Z,1.60
2018-09-25T13:55:31.573Z,1.30
2018-09-25T13:58:04.706Z,2.30
2018-09-25T14:00:37.681Z,1.47
2018-09-25T14:03:10.682Z,1.50
2018-09-25T14:05:43.634Z,1.70
2018-09-25T14:08:16.652Z,1.53
2018-09-25T14:10:49.961Z,1.80
2018-09-25T14:13:23.148Z,1.40
2018-09-25T14:15:56.304Z,1.80
2018-09-25T14:18:29.146Z,5.73
2018-09-25T14:21:02.380Z,2.50
2018-09-25T14:23:35.553Z,4.93
2018-09-25T14:26:08.934Z,3.10
2018-09-25T14:28:42.344Z,2.50
2018-09-25T14:31:15.793Z,2.27
2018-09-25T14:33:48.659Z,2.10
2018-09-25T14:36:21.543Z,2.43
2018-09-25T14:38:54.650Z,1.40
2018-09-25T14:41:27.509Z,2.07
2018-09-25T14:44:00.219Z,2.30
2018-09-25T14:46:33.064Z,1.70
2018-09-25T14:49:05.970Z,1.70
2018-09-25T14:51:38.924Z,1.63
2018-09-25T14:54:11.768Z,2.37
2018-09-25T14:56:44.981Z,1.23
2018-09-25T14:59:17.964Z,3.00
2018-09-25T15:01:50.996Z,1.87
2018-09-25T15:04:23.886Z,1.03
2018-09-25T15:06:57.077Z,1.87
2018-09-25T15:09:30.178Z,1.23
2018-09-25T15:12:03.568Z,1.67
2018-09-25T15:14:36.469Z,1.73
2018-09-25T15:17:09.328Z,1.53
2018-09-25T15:19:42.217Z,2.27
2018-09-25T15:22:15.749Z,2.20
2018-09-25T15:24:48.401Z,2.17
2018-09-25T15:27:21.313Z,2.00
2018-09-25T15:29:54.180Z,1.30
2018-09-25T15:32:27.234Z,1.53
2018-09-25T15:35:00.313Z,1.90
2018-09-25T15:37:33.188Z,1.63
2018-09-25T15:40:06.026Z,1.70
2018-09-25T15:42:39.268Z,1.40
2018-09-25T15:45:12.373Z,1.80
2018-09-25T15:47:45.537Z,3.80
2018-09-25T15:50:18.548Z,2.67
2018-09-25T15:52:51.732Z,4.80
2018-09-25T15:55:24.731Z,2.07
2018-09-25T15:57:57.768Z,2.77
2018-09-25T16:00:30.781Z,2.80
2018-09-25T16:03:03.938Z,1.67
2018-09-25T16:05:36.853Z,6.40
2018-09-25T16:08:09.734Z,3.50
2018-09-25T16:10:42.620Z,3.07
2018-09-25T16:13:15.561Z,2.43
2018-09-25T16:15:48.508Z,3.10
2018-09-25T16:18:22.019Z,1.97
2018-09-25T16:20:54.818Z,3.40
2018-09-25T16:23:27.742Z,2.00
2018-09-25T16:26:00.587Z,2.00
2018-09-25T16:28:33.780Z,1.77
2018-09-25T16:31:06.621Z,2.13
2018-09-25T16:33:39.531Z,5.30
2018-09-25T16:36:12.282Z,15.00
2018-09-25T16:38:45.488Z,4.67
2018-09-25T16:41:18.300Z,3.50
2018-09-25T16:43:51.212Z,3.20
2018-09-25T16:46:24.172Z,2.43
2018-09-25T16:48:57.473Z,3.10
2018-09-25T16:51:30.462Z,2.97
2018-09-25T16:54:03.754Z,1.77
2018-09-25T16:56:36.766Z,2.27
2018-09-25T16:59:09.631Z,3.57
2018-09-25T17:01:42.598Z,2.83
2018-09-25T17:04:15.836Z,3.93
2018-09-25T17:06:48.726Z,3.77
2018-09-25T17:09:22.079Z,3.07
2018-09-25T17:11:55.005Z,3.53
2018-09-25T17:14:27.940Z,3.70
2018-09-25T17:17:00.948Z,3.00
2018-09-25T17:19:33.960Z,3.70
2018-09-25T17:22:06.992Z,9.17
2018-09-25T17:24:40.324Z,4.80
2018-09-25T17:27:13.210Z,3.97
2018-09-25T17:29:46.625Z,6.10
2018-09-25T17:32:19.496Z,6.63
2018-09-25T17:34:52.650Z,6.10
2018-09-25T17:37:25.681Z,5.47
2018-09-25T17:39:58.577Z,9.90
2018-09-25T17:42:31.436Z,7.97
2018-09-25T17:45:04.665Z,7.20
2018-09-25T17:47:37.495Z,4.50
2018-09-25T17:50:11.315Z,7.00
2018-09-25T17:52:44.128Z,6.00
2018-09-25T17:55:17.281Z,4.87
2018-09-25T17:57:51.386Z,8.23
2018-09-25T18:00:24.526Z,8.43
2018-09-25T18:02:57.367Z,4.73
2018-09-25T18:05:30.507Z,5.30
2018-09-25T18:08:03.493Z,3.97
2018-09-25T18:10:36.543Z,6.00
2018-09-25T18:13:09.679Z,4.87
2018-09-25T18:15:42.921Z,4.20
2018-09-25T18:18:15.855Z,4.10
2018-09-25T18:20:56.203Z,4.43
2018-09-25T18:23:29.143Z,4.47
2018-09-25T18:26:02.367Z,3.73
2018-09-25T18:28:35.319Z,4.10
2018-09-25T18:31:08.689Z,4.93
2018-09-25T18:33:41.680Z,7.20
2018-09-25T18:36:14.696Z,5.53
2018-09-25T18:38:48.747Z,6.90
2018-09-25T18:41:21.968Z,5.20
2018-09-25T18:43:55.018Z,6.60
2018-09-25T18:46:27.906Z,6.23
2018-09-25T18:49:01.871Z,6.97
2018-09-25T18:51:35.174Z,7.60
2018-09-25T18:54:09.088Z,7.60
2018-09-25T18:56:43.207Z,6.97
2018-09-25T18:59:17.238Z,7.60
2018-09-25T19:01:50.585Z,7.50
2018-09-25T19:04:23.530Z,6.90
2018-09-25T19:06:57.626Z,8.30
2018-09-25T19:09:30.590Z,6.10
2018-09-25T19:12:05.816Z,6.73
2018-09-25T19:14:38.701Z,7.83
2018-09-25T19:17:12.747Z,5.37
2018-09-25T19:19:45.797Z,7.07
2018-09-25T19:22:19.336Z,6.37
2018-09-25T19:24:52.868Z,4.87
2018-09-25T19:27:26.353Z,5.30
2018-09-25T19:29:59.374Z,5.70
2018-09-25T19:32:32.523Z,5.07
2018-09-25T19:35:06.459Z,5.13
2018-09-25T19:37:40.825Z,4.80
2018-09-25T19:40:13.854Z,5.77
2018-09-25T19:42:46.974Z,5.40
2018-09-25T19:45:20.150Z,4.90
2018-09-25T19:47:54.161Z,6.07
2018-09-25T19:50:28.257Z,5.73
2018-09-25T19:53:03.370Z,5.03
2018-09-25T19:55:36.527Z,4.40
2018-09-25T19:58:09.611Z,5.43
2018-09-25T20:00:42.674Z,4.63
2018-09-25T20:03:15.835Z,4.93
2018-09-25T20:05:48.840Z,4.90
2018-09-25T20:08:22.398Z,4.80
2018-09-25T20:10:55.488Z,5.30
2018-09-25T20:13:28.654Z,5.90
2018-09-25T20:16:01.970Z,6.17
2018-09-25T20:18:36.305Z,5.70
2018-09-25T20:21:09.392Z,5.00
2018-09-25T20:23:42.948Z,4.63
2018-09-25T20:26:16.873Z,6.80
2018-09-25T20:28:50.028Z,5.70
2018-09-25T20:31:22.979Z,7.53
2018-09-25T20:33:56.291Z,5.40
2018-09-25T20:36:29.177Z,5.73
2018-09-25T20:39:03.564Z,6.50
2018-09-25T20:41:36.469Z,6.10
2018-09-25T20:44:09.478Z,8.23
2018-09-25T20:46:42.537Z,5.90
2018-09-25T20:49:15.757Z,6.80
2018-09-25T20:51:48.738Z,5.50
2018-09-25T20:54:22.936Z,5.50
2018-09-25T20:56:56.923Z,5.43
2018-09-25T20:59:30.040Z,5.10
2018-09-25T21:02:03.039Z,5.50
2018-09-25T21:04:36.361Z,5.13
2018-09-25T21:07:09.378Z,5.13
2018-09-25T21:09:42.541Z,5.60
2018-09-25T21:12:15.431Z,5.20
2018-09-25T21:14:48.781Z,5.13
2018-09-25T21:17:21.695Z,5.20
2018-09-25T21:19:55.026Z,5.37
2018-09-25T21:22:27.901Z,5.20
2018-09-25T21:25:00.801Z,5.27
2018-09-25T21:27:33.765Z,5.30
2018-09-25T21:30:06.768Z,5.13
2018-09-25T21:32:39.760Z,5.30
2018-09-25T21:35:12.872Z,5.17
2018-09-25T21:37:45.695Z,5.30
2018-09-25T21:40:18.790Z,4.93
2018-09-25T21:42:51.534Z,5.13
2018-09-25T21:45:24.491Z,4.30
2018-09-25T21:47:57.361Z,4.63
2018-09-25T21:50:30.534Z,4.50
2018-09-25T21:53:03.441Z,4.47
2018-09-25T21:55:36.216Z,4.30
2018-09-25T21:58:09.190Z,4.23
2018-09-25T22:00:43.100Z,4.90
2018-09-25T22:03:16.055Z,4.63
2018-09-25T22:05:49.323Z,4.67
2018-09-25T22:08:22.094Z,4.10
2018-09-25T22:10:54.808Z,4.20
2018-09-25T22:13:27.794Z,3.60
2018-09-25T22:16:01.058Z,3.47
2018-09-25T22:18:33.914Z,3.87
2018-09-25T22:21:06.688Z,3.87
2018-09-25T22:23:39.693Z,4.43
2018-09-25T22:26:12.971Z,4.10
2018-09-25T22:28:45.710Z,3.90
2018-09-25T22:31:18.832Z,3.50
2018-09-25T22:33:51.721Z,3.77
2018-09-25T22:36:24.656Z,4.40
2018-09-25T22:38:57.526Z,4.00
2018-09-25T22:41:30.503Z,3.60
2018-09-25T22:44:03.232Z,3.33
2018-09-25T22:46:36.305Z,4.07
2018-09-25T22:49:09.012Z,3.00
2018-09-25T22:51:42.155Z,3.17
2018-09-25T22:54:14.926Z,2.40
2018-09-25T22:56:47.957Z,3.00
2018-09-25T22:59:20.700Z,3.00
2018-09-25T23:01:54.105Z,2.80
2018-09-25T23:04:26.966Z,2.70
2018-09-25T23:07:00.263Z,2.60
2018-09-25T23:09:33.282Z,2.70
2018-09-25T23:12:06.530Z,3.07
2018-09-25T23:14:39.291Z,3.47
2018-09-25T23:17:12.343Z,2.80
2018-09-25T23:19:45.258Z,2.70
2018-09-25T23:22:18.585Z,2.53
2018-09-25T23:24:51.592Z,2.70
2018-09-25T23:27:25.233Z,2.97
2018-09-25T23:29:58.350Z,3.20
2018-09-25T23:32:34.935Z,3.30
2018-09-25T23:35:08.106Z,2.63
2018-09-25T23:37:41.936Z,3.70
2018-09-25T23:40:17.255Z,2.60
2018-09-25T23:42:48.425Z,3.73
2018-09-25T23:45:21.248Z,2.73
2018-09-25T23:47:55.016Z,2.43
2018-09-25T23:50:30.155Z,2.50
2018-09-25T23:53:05.351Z,2.50
2018-09-25T23:55:39.608Z,2.30
2018-09-25T23:58:10.933Z,2.47
